createdAt,value
2023-03-11T00:00:16.300Z,100.00
2023-03-11T00:02:47.847Z,100.00
2023-03-11T00:05:24.241Z,100.00
2023-03-11T00:07:51.286Z,100.00
2023-03-11T00:10:30.039Z,100.00
2023-03-11T00:12:58.236Z,100.00
2023-03-11T00:15:25.648Z,100.00
2023-03-11T00:17:52.568Z,100.00
2023-03-11T00:20:27.006Z,100.00
2023-03-11T00:22:54.576Z,100.00
2023-03-11T00:25:23.134Z,100.00
2023-03-11T00:27:50.464Z,100.00
2023-03-11T00:30:19.775Z,100.00
2023-03-11T00:32:51.959Z,100.00
2023-03-11T00:35:23.373Z,100.00
2023-03-11T00:37:57.564Z,100.00
2023-03-11T00:40:26.612Z,100.00
2023-03-11T00:42:53.617Z,100.00
2023-03-11T00:45:20.790Z,100.00
2023-03-11T00:47:47.452Z,100.00
2023-03-11T00:50:18.184Z,100.00
2023-03-11T00:52:46.677Z,100.00
2023-03-11T00:55:15.929Z,100.00
2023-03-11T00:57:43.724Z,100.00
2023-03-11T01:00:15.498Z,100.00
2023-03-11T01:02:42.299Z,100.00
2023-03-11T01:05:09.529Z,100.00
2023-03-11T01:07:36.725Z,100.00
2023-03-11T01:10:03.858Z,100.00
2023-03-11T01:12:31.440Z,100.00
2023-03-11T01:14:58.177Z,100.00
2023-03-11T01:17:24.768Z,100.00
2023-03-11T01:19:53.383Z,100.00
2023-03-11T01:22:20.011Z,100.00
2023-03-11T01:24:46.711Z,100.00
2023-03-11T01:27:13.272Z,100.00
2023-03-11T01:29:39.933Z,100.00
2023-03-11T01:32:07.016Z,100.00
2023-03-11T01:34:36.094Z,100.00
2023-03-11T01:37:04.105Z,100.00
2023-03-11T01:39:30.749Z,100.00
2023-03-11T01:41:57.631Z,100.00
2023-03-11T01:44:24.372Z,100.00
2023-03-11T01:46:54.139Z,100.00
2023-03-11T01:49:22.368Z,100.00
2023-03-11T01:52:10.985Z,100.00
2023-03-11T01:54:40.643Z,100.00
2023-03-11T01:57:11.981Z,100.00
2023-03-11T01:59:45.264Z,100.00
2023-03-11T02:02:18.555Z,100.00
2023-03-11T02:04:45.925Z,100.00
2023-03-11T02:07:14.709Z,100.00
2023-03-11T02:09:41.357Z,100.00
2023-03-11T02:12:11.508Z,100.00
2023-03-11T02:14:43.490Z,100.00
2023-03-11T02:17:11.075Z,100.00
2023-03-11T02:20:01.804Z,100.00
2023-03-11T02:22:33.447Z,100.00
2023-03-11T02:25:14.529Z,100.00
2023-03-11T02:27:47.473Z,100.00
2023-03-11T02:30:15.464Z,100.00
2023-03-11T02:32:48.151Z,100.00
2023-03-11T02:35:16.037Z,100.00
2023-03-11T02:37:51.620Z,100.00
2023-03-11T02:40:24.992Z,100.00
2023-03-11T02:42:56.260Z,100.00
2023-03-11T02:45:25.637Z,100.00
2023-03-11T02:47:54.660Z,100.00
2023-03-11T02:50:22.279Z,100.00
2023-03-11T02:52:49.960Z,100.00
2023-03-11T02:55:18.150Z,100.00
2023-03-11T02:57:45.076Z,100.00
2023-03-11T03:00:15.194Z,100.00
2023-03-11T03:02:43.383Z,100.00
2023-03-11T03:05:11.346Z,100.00
2023-03-11T03:07:38.536Z,100.00
2023-03-11T03:10:06.573Z,100.00
2023-03-11T03:12:33.496Z,100.00
2023-03-11T03:15:00.120Z,100.00
2023-03-11T03:17:26.829Z,100.00
2023-03-11T03:19:53.468Z,100.00
2023-03-11T03:22:20.255Z,100.00
2023-03-11T03:24:46.978Z,100.00
2023-03-11T03:27:13.512Z,100.00
2023-03-11T03:29:40.183Z,100.00
2023-03-11T03:32:07.017Z,100.00
2023-03-11T03:34:33.782Z,100.00
2023-03-11T03:37:00.589Z,100.00
2023-03-11T03:39:29.399Z,100.00
2023-03-11T03:41:57.201Z,100.00
2023-03-11T03:44:24.229Z,100.00
2023-03-11T03:46:50.928Z,100.00
2023-03-11T03:49:17.517Z,100.00
2023-03-11T03:51:44.166Z,100.00
2023-03-11T03:54:10.801Z,100.00
2023-03-11T03:56:37.363Z,100.00
2023-03-11T03:59:04.150Z,100.00
2023-03-11T04:01:30.737Z,100.00
2023-03-11T04:03:57.452Z,100.00
2023-03-11T04:06:27.539Z,100.00
2023-03-11T04:08:55.015Z,100.00
2023-03-11T04:11:22.412Z,100.00
2023-03-11T04:13:49.237Z,100.00
2023-03-11T04:16:20.528Z,100.00
2023-03-11T04:18:47.391Z,100.00
2023-03-11T04:21:14.343Z,100.00
2023-03-11T04:23:40.939Z,100.00
2023-03-11T04:26:07.723Z,100.00
2023-03-11T04:28:34.370Z,100.00
2023-03-11T04:31:01.113Z,100.00
2023-03-11T04:33:27.799Z,100.00
2023-03-11T04:35:54.515Z,100.00
2023-03-11T04:38:21.239Z,100.00
2023-03-11T04:40:48.136Z,100.00
2023-03-11T04:43:16.031Z,100.00
2023-03-11T04:45:42.838Z,100.00
2023-03-11T04:48:10.792Z,100.00
2023-03-11T04:50:37.340Z,100.00
2023-03-11T04:53:03.907Z,100.00
2023-03-11T04:55:30.555Z,100.00
2023-03-11T04:57:57.280Z,100.00
2023-03-11T05:00:25.377Z,100.00
2023-03-11T05:02:52.375Z,100.00
2023-03-11T05:05:21.881Z,100.00
2023-03-11T05:07:50.719Z,100.00
2023-03-11T05:10:22.485Z,100.00
2023-03-11T05:12:51.201Z,100.00
2023-03-11T05:15:18.765Z,100.00
2023-03-11T05:17:46.171Z,100.00
2023-03-11T05:20:14.398Z,100.00
2023-03-11T05:22:42.169Z,100.00
2023-03-11T05:25:09.436Z,100.00
2023-03-11T05:27:36.094Z,100.00
2023-03-11T05:30:02.705Z,100.00
2023-03-11T05:32:29.502Z,100.00
2023-03-11T05:34:56.198Z,100.00
2023-03-11T05:37:22.829Z,100.00
2023-03-11T05:39:49.579Z,100.00
2023-03-11T05:42:16.316Z,100.00
2023-03-11T05:44:43.025Z,100.00
2023-03-11T05:47:09.880Z,100.00
2023-03-11T05:49:36.479Z,100.00
2023-03-11T05:52:03.508Z,100.00
2023-03-11T05:54:30.346Z,100.00
2023-03-11T05:56:56.982Z,100.00
2023-03-11T05:59:24.150Z,100.00
2023-03-11T06:01:50.937Z,100.00
2023-03-11T06:04:17.597Z,100.00
2023-03-11T06:06:44.534Z,100.00
2023-03-11T06:09:15.503Z,100.00
2023-03-11T06:11:42.864Z,100.00
2023-03-11T06:14:14.509Z,100.00
2023-03-11T06:16:41.928Z,100.00
2023-03-11T06:19:08.936Z,100.00
2023-03-11T06:21:35.578Z,100.00
2023-03-11T06:24:02.313Z,100.00
2023-03-11T06:26:28.889Z,100.00
2023-03-11T06:28:55.629Z,100.00
2023-03-11T06:31:26.180Z,100.00
2023-03-11T06:33:55.917Z,100.00
2023-03-11T06:36:23.569Z,100.00
2023-03-11T06:38:52.952Z,100.00
2023-03-11T06:41:19.600Z,100.00
2023-03-11T06:43:46.214Z,100.00
2023-03-11T06:46:17.781Z,100.00
2023-03-11T06:48:45.924Z,100.00
2023-03-11T06:51:14.137Z,100.00
2023-03-11T06:53:41.175Z,100.00
2023-03-11T06:56:10.787Z,100.00
2023-03-11T06:58:39.538Z,100.00
2023-03-11T07:01:21.506Z,100.00
2023-03-11T07:03:49.814Z,100.00
2023-03-11T07:06:24.977Z,100.00
2023-03-11T07:08:53.014Z,100.00
2023-03-11T07:11:24.801Z,100.00
2023-03-11T07:13:52.314Z,100.00
2023-03-11T07:16:24.460Z,100.00
2023-03-11T07:18:52.259Z,100.00
2023-03-11T07:21:21.331Z,100.00
2023-03-11T07:23:49.959Z,100.00
2023-03-11T07:26:18.065Z,100.00
2023-03-11T07:28:44.934Z,100.00
2023-03-11T07:31:14.279Z,100.00
2023-03-11T07:33:40.978Z,100.00
2023-03-11T07:36:10.486Z,100.00
2023-03-11T07:38:37.117Z,93.53
2023-03-11T07:41:04.325Z,87.63
2023-03-11T07:43:31.035Z,92.87
2023-03-11T07:46:05.063Z,100.00
2023-03-11T07:48:31.837Z,94.10
2023-03-11T07:51:09.894Z,94.77
2023-03-11T07:53:36.702Z,91.96
2023-03-11T07:56:04.177Z,94.11
2023-03-11T07:58:31.212Z,98.14
2023-03-11T08:01:07.710Z,98.69
2023-03-11T08:03:35.397Z,99.21
2023-03-11T08:06:02.503Z,99.96
2023-03-11T08:08:29.255Z,96.69
2023-03-11T08:10:55.884Z,100.00
2023-03-11T08:13:22.471Z,97.02
2023-03-11T08:15:49.307Z,100.00
2023-03-11T08:18:16.977Z,100.00
2023-03-11T08:20:45.228Z,100.00
2023-03-11T08:23:12.353Z,100.00
2023-03-11T08:25:40.039Z,100.00
2023-03-11T08:28:07.935Z,100.00
2023-03-11T08:30:34.871Z,100.00
2023-03-11T08:33:02.540Z,100.00
2023-03-11T08:35:29.287Z,100.00
2023-03-11T08:37:56.042Z,100.00
2023-03-11T08:40:23.131Z,100.00
2023-03-11T08:42:49.795Z,100.00
2023-03-11T08:45:16.505Z,100.00
2023-03-11T08:47:43.219Z,100.00
2023-03-11T08:50:16.451Z,100.00
2023-03-11T08:52:43.376Z,100.00
2023-03-11T08:55:14.051Z,100.00
2023-03-11T08:57:40.675Z,100.00
2023-03-11T09:00:11.023Z,100.00
2023-03-11T09:02:38.776Z,100.00
2023-03-11T09:05:05.819Z,100.00
2023-03-11T09:07:32.528Z,100.00
2023-03-11T09:09:59.157Z,100.00
2023-03-11T09:12:25.922Z,100.00
2023-03-11T09:14:52.571Z,99.47
2023-03-11T09:17:19.172Z,96.89
2023-03-11T09:19:45.895Z,95.45
2023-03-11T09:22:12.502Z,96.91
2023-03-11T09:24:39.106Z,96.30
2023-03-11T09:27:05.913Z,99.93
2023-03-11T09:29:32.592Z,100.00
2023-03-11T09:31:59.647Z,100.00
2023-03-11T09:34:26.195Z,99.47
2023-03-11T09:36:52.877Z,92.47
2023-03-11T09:39:19.589Z,95.74
2023-03-11T09:41:59.351Z,93.40
2023-03-11T09:44:47.968Z,99.57
2023-03-11T09:47:23.476Z,96.21
2023-03-11T09:50:16.386Z,93.09
2023-03-11T09:52:45.693Z,94.17
2023-03-11T09:55:25.475Z,95.48
2023-03-11T09:57:54.071Z,95.15
2023-03-11T10:00:23.782Z,96.34
2023-03-11T10:02:50.873Z,98.70
2023-03-11T10:05:25.951Z,96.17
2023-03-11T10:08:17.353Z,97.96
2023-03-11T10:10:51.914Z,96.70
2023-03-11T10:13:29.588Z,99.71
2023-03-11T10:16:12.365Z,97.36
2023-03-11T10:18:58.973Z,92.33
2023-03-11T10:21:43.979Z,94.41
2023-03-11T10:24:45.743Z,90.03
2023-03-11T10:27:19.574Z,95.32
2023-03-11T10:30:15.795Z,90.10
2023-03-11T10:32:57.029Z,94.52
2023-03-11T10:35:30.330Z,96.22
2023-03-11T10:38:08.006Z,90.03
2023-03-11T10:40:41.217Z,90.13
2023-03-11T10:43:45.067Z,90.90
2023-03-11T10:46:25.381Z,92.04
2023-03-11T10:48:52.202Z,93.00
2023-03-11T10:51:31.230Z,93.67
2023-03-11T10:54:00.255Z,91.36
2023-03-11T10:56:38.805Z,94.93
2023-03-11T10:59:22.240Z,95.96
2023-03-11T11:01:56.521Z,98.35
2023-03-11T11:04:34.686Z,93.99
2023-03-11T11:07:31.415Z,88.53
2023-03-11T11:10:20.036Z,96.76
2023-03-11T11:12:56.467Z,92.54
2023-03-11T11:15:24.483Z,91.21
2023-03-11T11:17:52.544Z,89.68
2023-03-11T11:20:23.643Z,93.11
2023-03-11T11:22:56.398Z,90.14
2023-03-11T11:25:35.234Z,91.53
2023-03-11T11:28:24.650Z,87.99
2023-03-11T11:31:04.006Z,95.96
2023-03-11T11:33:48.946Z,91.66
2023-03-11T11:36:16.471Z,91.53
2023-03-11T11:38:43.341Z,92.47
2023-03-11T11:41:15.257Z,87.19
2023-03-11T11:43:55.361Z,86.09
2023-03-11T11:46:40.354Z,87.47
2023-03-11T11:49:18.959Z,87.27
2023-03-11T11:52:26.756Z,85.39
2023-03-11T11:55:18.201Z,90.51
2023-03-11T11:57:45.012Z,86.00
2023-03-11T12:00:20.464Z,83.88
2023-03-11T12:03:06.651Z,80.23
2023-03-11T12:05:44.141Z,83.55
2023-03-11T12:08:23.135Z,86.15
2023-03-11T12:10:59.446Z,86.25
2023-03-11T12:13:44.539Z,86.19
2023-03-11T12:16:24.455Z,83.59
2023-03-11T12:19:00.454Z,93.22
2023-03-11T12:21:45.700Z,79.06
2023-03-11T12:24:12.187Z,82.85
2023-03-11T12:26:42.700Z,88.29
2023-03-11T12:29:35.610Z,87.08
2023-03-11T12:32:03.268Z,80.05
2023-03-11T12:34:34.306Z,79.43
2023-03-11T12:37:06.268Z,79.14
2023-03-11T12:39:34.285Z,81.70
2023-03-11T12:42:19.416Z,85.30
2023-03-11T12:44:50.344Z,83.48
2023-03-11T12:47:22.917Z,80.67
2023-03-11T12:49:55.151Z,81.61
2023-03-11T12:52:24.884Z,81.15
2023-03-11T12:54:57.233Z,71.73
2023-03-11T12:57:46.963Z,73.38
2023-03-11T13:00:44.866Z,77.18
2023-03-11T13:03:11.335Z,74.31
2023-03-11T13:06:15.532Z,78.76
2023-03-11T13:08:51.037Z,81.64
2023-03-11T13:11:36.397Z,76.08
2023-03-11T13:14:16.248Z,78.88
2023-03-11T13:16:44.688Z,78.43
2023-03-11T13:19:27.909Z,74.63
2023-03-11T13:21:56.497Z,75.24
2023-03-11T13:24:25.842Z,75.24
2023-03-11T13:27:02.190Z,71.17
2023-03-11T13:29:57.877Z,67.89
2023-03-11T13:32:30.645Z,67.65
2023-03-11T13:35:10.010Z,77.73
2023-03-11T13:38:07.362Z,67.57
2023-03-11T13:40:41.212Z,75.13
2023-03-11T13:43:20.884Z,73.11
2023-03-11T13:45:56.666Z,71.20
2023-03-11T13:48:31.083Z,78.11
2023-03-11T13:51:04.462Z,68.71
2023-03-11T13:53:52.929Z,74.97
2023-03-11T13:56:39.306Z,67.22
2023-03-11T13:59:23.251Z,75.17
2023-03-11T14:02:01.067Z,68.43
2023-03-11T14:04:30.610Z,65.57
2023-03-11T14:06:58.023Z,65.27
2023-03-11T14:09:27.780Z,64.90
2023-03-11T14:12:03.274Z,72.83
2023-03-11T14:14:47.803Z,67.41
2023-03-11T14:17:19.681Z,64.04
2023-03-11T14:20:12.165Z,63.97
2023-03-11T14:22:38.853Z,69.16
2023-03-11T14:25:09.833Z,65.10
2023-03-11T14:27:47.553Z,71.23
2023-03-11T14:30:20.892Z,70.67
2023-03-11T14:33:01.494Z,69.28
2023-03-11T14:35:29.268Z,68.25
2023-03-11T14:37:56.180Z,73.29
2023-03-11T14:40:27.048Z,67.65
2023-03-11T14:42:58.362Z,71.14
2023-03-11T14:45:28.933Z,64.20
2023-03-11T14:48:18.229Z,64.65
2023-03-11T14:50:49.397Z,68.32
2023-03-11T14:53:21.236Z,65.44
2023-03-11T14:55:51.249Z,64.27
2023-03-11T14:58:35.776Z,68.77
2023-03-11T15:01:22.815Z,64.30
2023-03-11T15:04:01.705Z,64.87
2023-03-11T15:06:30.142Z,64.91
2023-03-11T15:09:06.221Z,66.88
2023-03-11T15:11:45.574Z,60.99
2023-03-11T15:14:33.375Z,64.18
2023-03-11T15:17:33.778Z,62.83
2023-03-11T15:20:07.489Z,65.77
2023-03-11T15:22:37.139Z,65.53
2023-03-11T15:25:16.682Z,65.71
2023-03-11T15:27:43.376Z,64.43
2023-03-11T15:30:28.916Z,64.13
2023-03-11T15:32:56.690Z,60.96
2023-03-11T15:35:31.128Z,62.35
2023-03-11T15:38:25.564Z,68.53
2023-03-11T15:41:01.108Z,59.93
2023-03-11T15:44:00.175Z,62.39
2023-03-11T15:46:26.788Z,63.81
2023-03-11T15:48:53.380Z,69.02
2023-03-11T15:51:21.100Z,67.59
2023-03-11T15:53:48.803Z,65.45
2023-03-11T15:56:24.883Z,59.31
2023-03-11T15:58:51.510Z,64.84
2023-03-11T16:01:22.979Z,61.15
2023-03-11T16:03:49.811Z,66.67
2023-03-11T16:06:16.461Z,74.12
2023-03-11T16:08:44.672Z,66.91
2023-03-11T16:11:13.037Z,65.31
2023-03-11T16:13:39.739Z,71.47
2023-03-11T16:16:06.938Z,74.71
2023-03-11T16:18:35.716Z,73.53
2023-03-11T16:21:08.586Z,76.05
2023-03-11T16:23:50.517Z,74.26
2023-03-11T16:26:18.208Z,68.66
2023-03-11T16:28:44.846Z,67.86
2023-03-11T16:31:11.550Z,76.74
2023-03-11T16:33:38.296Z,71.57
2023-03-11T16:36:06.424Z,69.77
2023-03-11T16:38:44.102Z,72.57
2023-03-11T16:41:11.245Z,76.92
2023-03-11T16:43:37.821Z,78.39
2023-03-11T16:46:04.893Z,78.73
2023-03-11T16:48:31.846Z,81.68
2023-03-11T16:50:58.560Z,82.08
2023-03-11T16:53:26.353Z,75.78
2023-03-11T16:55:53.573Z,78.77
2023-03-11T16:58:20.820Z,80.99
2023-03-11T17:00:47.659Z,82.06
2023-03-11T17:03:15.978Z,73.33
2023-03-11T17:05:43.423Z,78.83
2023-03-11T17:08:10.544Z,75.33
2023-03-11T17:10:43.653Z,78.30
2023-03-11T17:13:12.951Z,82.75
2023-03-11T17:15:42.267Z,77.60
2023-03-11T17:18:08.968Z,81.54
2023-03-11T17:20:37.248Z,82.65
2023-03-11T17:23:03.778Z,84.74
2023-03-11T17:25:30.514Z,84.29
2023-03-11T17:27:57.777Z,84.65
2023-03-11T17:30:36.031Z,85.67
2023-03-11T17:33:03.746Z,86.22
2023-03-11T17:35:30.376Z,85.74
2023-03-11T17:37:57.026Z,86.86
2023-03-11T17:40:23.682Z,87.71
2023-03-11T17:42:50.316Z,88.41
2023-03-11T17:45:17.034Z,88.25
2023-03-11T17:47:44.150Z,88.91
2023-03-11T17:50:12.052Z,89.53
2023-03-11T17:52:38.720Z,89.87
2023-03-11T17:55:06.144Z,90.02
2023-03-11T17:57:44.507Z,90.13
2023-03-11T18:00:14.792Z,90.40
2023-03-11T18:02:41.700Z,90.51
2023-03-11T18:05:09.522Z,91.40
2023-03-11T18:07:39.124Z,91.42
2023-03-11T18:10:07.714Z,91.20
2023-03-11T18:12:34.537Z,91.54
2023-03-11T18:15:04.334Z,92.70
2023-03-11T18:17:31.013Z,93.05
2023-03-11T18:20:00.568Z,93.36
2023-03-11T18:22:27.349Z,93.35
2023-03-11T18:24:54.458Z,93.27
2023-03-11T18:27:21.250Z,93.57
2023-03-11T18:29:47.786Z,93.45
2023-03-11T18:32:14.424Z,93.45
2023-03-11T18:34:41.811Z,93.76
2023-03-11T18:37:09.076Z,94.42
2023-03-11T18:39:36.505Z,93.94
2023-03-11T18:42:03.137Z,94.06
2023-03-11T18:44:29.848Z,94.19
2023-03-11T18:46:56.575Z,94.32
2023-03-11T18:49:23.189Z,94.44
2023-03-11T18:51:49.821Z,94.85
2023-03-11T18:54:16.694Z,95.28
2023-03-11T18:56:43.539Z,95.03
2023-03-11T18:59:12.121Z,95.37
2023-03-11T19:01:38.965Z,95.34
2023-03-11T19:04:06.271Z,96.00
2023-03-11T19:06:33.112Z,96.40
2023-03-11T19:08:59.833Z,96.80
2023-03-11T19:11:26.637Z,96.97
2023-03-11T19:13:53.978Z,97.15
2023-03-11T19:16:23.824Z,97.55
2023-03-11T19:18:51.554Z,97.84
2023-03-11T19:21:18.363Z,98.15
2023-03-11T19:23:45.584Z,98.34
2023-03-11T19:26:13.240Z,98.32
2023-03-11T19:28:40.112Z,98.43
2023-03-11T19:31:07.035Z,98.68
2023-03-11T19:33:34.677Z,98.44
2023-03-11T19:36:04.157Z,98.37
2023-03-11T19:38:30.958Z,98.31
2023-03-11T19:41:10.737Z,98.28
2023-03-11T19:43:37.498Z,98.05
2023-03-11T19:46:04.878Z,97.93
2023-03-11T19:48:32.031Z,98.08
2023-03-11T19:50:58.891Z,98.32
2023-03-11T19:53:26.783Z,98.55
2023-03-11T19:55:56.291Z,98.49
2023-03-11T19:58:24.460Z,98.75
2023-03-11T20:00:52.484Z,98.23
2023-03-11T20:03:23.013Z,97.79
2023-03-11T20:05:51.306Z,96.45
2023-03-11T20:08:20.490Z,97.01
2023-03-11T20:10:51.202Z,96.99
2023-03-11T20:13:23.112Z,97.67
2023-03-11T20:15:50.116Z,97.01
2023-03-11T20:18:17.997Z,96.89
2023-03-11T20:23:13.188Z,97.22
2023-03-11T20:25:41.485Z,98.29
2023-03-11T20:28:08.921Z,98.32
2023-03-11T20:30:38.300Z,99.17
2023-03-11T20:33:05.792Z,99.22
2023-03-11T20:35:32.843Z,99.52
2023-03-11T20:37:59.997Z,99.76
2023-03-11T20:40:26.856Z,99.59
2023-03-11T20:42:53.469Z,99.91
2023-03-11T20:45:21.962Z,99.83
2023-03-11T20:47:50.343Z,99.70
2023-03-11T20:50:17.413Z,99.97
2023-03-11T20:52:44.082Z,100.00
2023-03-11T20:55:11.620Z,100.00
2023-03-11T20:57:39.513Z,100.00
2023-03-11T21:00:11.336Z,100.00
2023-03-11T21:02:39.897Z,100.00
2023-03-11T21:05:08.788Z,100.00
2023-03-11T21:07:35.896Z,100.00
2023-03-11T21:10:05.498Z,100.00
2023-03-11T21:12:33.485Z,100.00
2023-03-11T21:15:00.212Z,100.00
2023-03-11T21:17:26.923Z,100.00
2023-03-11T21:19:53.603Z,100.00
2023-03-11T21:22:20.262Z,100.00
2023-03-11T21:24:53.995Z,100.00
2023-03-11T21:27:26.198Z,100.00
2023-03-11T21:29:56.871Z,100.00
2023-03-11T21:32:25.082Z,100.00
2023-03-11T21:34:55.417Z,100.00
2023-03-11T21:37:22.267Z,100.00
2023-03-11T21:39:49.049Z,100.00
2023-03-11T21:42:16.224Z,100.00
2023-03-11T21:44:43.088Z,100.00
2023-03-11T21:47:09.844Z,100.00
2023-03-11T21:49:36.585Z,100.00
2023-03-11T21:52:03.245Z,100.00
2023-03-11T21:54:29.812Z,100.00
2023-03-11T21:56:56.575Z,100.00
2023-03-11T21:59:25.515Z,100.00
2023-03-11T22:01:52.927Z,100.00
2023-03-11T22:04:19.870Z,100.00
2023-03-11T22:06:46.581Z,100.00
2023-03-11T22:09:13.201Z,100.00
2023-03-11T22:11:40.249Z,100.00
2023-03-11T22:14:06.970Z,100.00
2023-03-11T22:16:33.745Z,100.00
2023-03-11T22:19:00.790Z,100.00
2023-03-11T22:21:27.649Z,100.00
2023-03-11T22:23:54.280Z,100.00
2023-03-11T22:26:20.984Z,100.00
2023-03-11T22:28:47.901Z,100.00
2023-03-11T22:31:15.627Z,100.00
2023-03-11T22:33:42.278Z,100.00
2023-03-11T22:36:09.540Z,100.00
2023-03-11T22:38:36.965Z,100.00
2023-03-11T22:41:06.015Z,100.00
2023-03-11T22:43:32.593Z,100.00
2023-03-11T22:46:01.759Z,100.00
2023-03-11T22:48:29.154Z,100.00
2023-03-11T22:50:55.936Z,100.00
2023-03-11T22:53:24.831Z,100.00
2023-03-11T22:55:52.093Z,100.00
2023-03-11T22:58:18.823Z,100.00
2023-03-11T23:00:45.404Z,100.00
2023-03-11T23:03:12.823Z,100.00
2023-03-11T23:05:42.719Z,100.00
2023-03-11T23:08:13.651Z,100.00
2023-03-11T23:10:41.925Z,100.00
2023-03-11T23:13:09.116Z,100.00
2023-03-11T23:15:36.081Z,100.00
2023-03-11T23:18:02.649Z,100.00
2023-03-11T23:20:29.364Z,100.00
2023-03-11T23:22:55.960Z,100.00
2023-03-11T23:25:22.545Z,100.00
2023-03-11T23:27:49.090Z,100.00
2023-03-11T23:30:16.994Z,100.00
2023-03-11T23:32:44.968Z,100.00
2023-03-11T23:35:12.607Z,100.00
2023-03-11T23:37:39.385Z,100.00
2023-03-11T23:40:09.497Z,100.00
2023-03-11T23:42:36.253Z,100.00
2023-03-11T23:45:03.769Z,100.00
2023-03-11T23:47:30.351Z,100.00
2023-03-11T23:49:56.921Z,100.00
2023-03-11T23:52:24.726Z,100.00
2023-03-11T23:54:51.280Z,100.00
2023-03-11T23:57:18.144Z,100.00
2023-03-11T23:59:44.825Z,100.00
